createdAt,value
2019-01-18T00:02:04.997Z,12.53
2019-01-18T00:04:36.246Z,12.50
2019-01-18T00:07:07.834Z,12.39
2019-01-18T00:09:39.407Z,12.39
2019-01-18T00:12:10.901Z,12.35
2019-01-18T00:14:42.543Z,12.55
2019-01-18T00:17:13.813Z,12.66
2019-01-18T00:19:45.455Z,12.76
2019-01-18T00:22:16.954Z,12.76
2019-01-18T00:24:48.683Z,12.69
2019-01-18T00:27:19.891Z,12.69
2019-01-18T00:29:51.374Z,12.64
2019-01-18T00:32:22.553Z,12.71
2019-01-18T00:34:53.865Z,12.60
2019-01-18T00:37:25.265Z,12.53
2019-01-18T00:39:56.630Z,12.61
2019-01-18T00:42:28.045Z,12.43
2019-01-18T00:45:03.545Z,12.43
2019-01-18T00:47:35.211Z,12.48
2019-01-18T00:50:09.073Z,12.30
2019-01-18T00:52:40.361Z,12.34
2019-01-18T00:55:13.099Z,12.46
2019-01-18T00:57:44.964Z,12.41
2019-01-18T01:00:19.805Z,12.46
2019-01-18T01:02:51.387Z,12.46
2019-01-18T01:05:22.847Z,12.33
2019-01-18T01:07:54.047Z,12.40
2019-01-18T01:10:25.612Z,12.42
2019-01-18T01:12:57.334Z,12.37
2019-01-18T01:15:28.710Z,12.25
2019-01-18T01:17:59.921Z,12.33
2019-01-18T01:20:31.388Z,12.33
2019-01-18T01:23:02.833Z,12.13
2019-01-18T01:25:35.338Z,12.21
2019-01-18T01:28:06.890Z,12.21
2019-01-18T01:30:38.481Z,12.14
2019-01-18T01:33:09.621Z,12.06
2019-01-18T01:35:41.054Z,12.09
2019-01-18T01:38:12.432Z,12.03
2019-01-18T01:40:44.313Z,12.03
2019-01-18T01:43:15.770Z,11.91
2019-01-18T01:45:47.085Z,11.89
2019-01-18T01:48:18.614Z,11.90
2019-01-18T01:50:50.083Z,11.86
2019-01-18T01:53:21.348Z,11.86
2019-01-18T01:55:52.594Z,11.92
2019-01-18T01:58:23.907Z,11.92
2019-01-18T02:00:55.380Z,11.92
2019-01-18T02:03:26.810Z,11.92
2019-01-18T02:05:58.139Z,11.82
2019-01-18T02:08:29.404Z,11.96
2019-01-18T02:11:01.535Z,12.01
2019-01-18T02:13:32.807Z,12.01
2019-01-18T02:16:04.431Z,12.18
2019-01-18T02:18:36.094Z,12.04
2019-01-18T02:21:08.004Z,12.01
2019-01-18T02:23:39.351Z,12.03
2019-01-18T02:26:11.794Z,14.80
2019-01-18T02:28:43.647Z,15.08
2019-01-18T02:31:14.701Z,15.08
2019-01-18T02:33:47.054Z,15.32
2019-01-18T02:36:18.197Z,15.34
2019-01-18T02:38:49.523Z,15.30
2019-01-18T02:41:21.116Z,14.67
2019-01-18T02:43:52.696Z,14.60
2019-01-18T02:46:24.389Z,14.50
2019-01-18T02:48:55.765Z,14.46
2019-01-18T02:51:27.367Z,14.37
2019-01-18T02:53:59.042Z,14.37
2019-01-18T02:56:30.431Z,14.38
2019-01-18T02:59:01.790Z,14.41
2019-01-18T03:01:33.361Z,14.41
2019-01-18T03:04:05.138Z,15.15
2019-01-18T03:06:37.180Z,15.28
2019-01-18T03:09:10.686Z,15.28
2019-01-18T03:11:42.695Z,15.40
2019-01-18T03:14:14.097Z,15.40
2019-01-18T03:16:46.566Z,15.46
2019-01-18T03:19:18.323Z,15.47
2019-01-18T03:21:49.710Z,15.52
2019-01-18T03:24:21.186Z,15.56
2019-01-18T03:26:52.823Z,15.56
2019-01-18T03:29:24.184Z,15.56
2019-01-18T03:31:55.620Z,15.04
2019-01-18T03:34:27.022Z,15.04
2019-01-18T03:36:59.038Z,14.74
2019-01-18T03:39:30.374Z,14.87
2019-01-18T03:42:02.610Z,14.86
2019-01-18T03:44:33.521Z,14.86
2019-01-18T03:47:04.965Z,15.20
2019-01-18T03:49:36.012Z,15.13
2019-01-18T03:52:07.360Z,15.13
2019-01-18T03:54:38.262Z,15.12
2019-01-18T03:57:09.478Z,15.27
2019-01-18T03:59:40.895Z,15.42
2019-01-18T04:02:13.396Z,15.45
2019-01-18T04:04:44.842Z,15.45
2019-01-18T04:07:16.343Z,15.33
2019-01-18T04:09:47.710Z,15.52
2019-01-18T04:12:19.418Z,15.92
2019-01-18T04:14:51.164Z,15.99
2019-01-18T04:17:22.782Z,15.99
2019-01-18T04:19:54.089Z,16.16
2019-01-18T04:22:25.825Z,16.20
2019-01-18T04:24:57.015Z,16.20
2019-01-18T04:27:29.463Z,16.20
2019-01-18T04:30:01.136Z,15.97
2019-01-18T04:32:32.602Z,15.86
2019-01-18T04:35:03.927Z,15.94
2019-01-18T04:37:35.550Z,16.07
2019-01-18T04:40:09.411Z,16.09
2019-01-18T04:42:41.508Z,16.12
2019-01-18T04:45:13.590Z,16.09
2019-01-18T04:47:44.641Z,15.96
2019-01-18T04:50:21.410Z,16.06
2019-01-18T04:52:52.723Z,16.06
2019-01-18T04:55:24.677Z,16.12
2019-01-18T04:57:56.004Z,16.07
2019-01-18T05:00:29.332Z,16.00
2019-01-18T05:03:01.006Z,16.00
2019-01-18T05:05:32.795Z,16.22
2019-01-18T05:08:04.561Z,16.22
2019-01-18T05:10:36.260Z,16.22
2019-01-18T05:13:08.258Z,16.22
2019-01-18T05:15:40.100Z,16.36
2019-01-18T05:18:11.531Z,16.35
2019-01-18T05:20:42.779Z,16.18
2019-01-18T05:23:14.076Z,16.18
2019-01-18T05:25:45.599Z,16.47
2019-01-18T05:28:17.681Z,16.53
2019-01-18T05:30:49.305Z,16.65
2019-01-18T05:33:20.831Z,16.62
2019-01-18T05:35:52.712Z,16.62
2019-01-18T05:38:24.327Z,16.63
2019-01-18T05:40:55.860Z,16.63
2019-01-18T05:43:27.459Z,16.83
2019-01-18T05:45:58.947Z,16.83
2019-01-18T05:48:30.309Z,16.81
2019-01-18T05:51:03.218Z,16.88
2019-01-18T05:53:34.602Z,17.01
2019-01-18T05:56:06.076Z,17.01
2019-01-18T05:58:37.260Z,17.28
2019-01-18T06:01:10.656Z,17.08
2019-01-18T06:03:42.131Z,17.08
2019-01-18T06:06:13.953Z,17.16
2019-01-18T06:08:45.176Z,17.25
2019-01-18T06:11:16.589Z,17.34
2019-01-18T06:13:48.223Z,17.24
2019-01-18T06:16:20.050Z,17.24
2019-01-18T06:18:51.881Z,17.31
2019-01-18T06:21:22.946Z,17.54
2019-01-18T06:23:54.800Z,17.54
2019-01-18T06:26:26.317Z,17.27
2019-01-18T06:28:57.536Z,17.42
2019-01-18T06:31:28.857Z,17.50
2019-01-18T06:34:00.549Z,17.59
2019-01-18T06:36:34.388Z,17.65
2019-01-18T06:39:08.265Z,17.65
2019-01-18T06:41:49.240Z,17.79
2019-01-18T06:44:20.473Z,17.88
2019-01-18T06:46:51.583Z,17.97
2019-01-18T06:49:22.781Z,18.23
2019-01-18T06:51:54.225Z,18.48
2019-01-18T06:54:25.796Z,18.18
2019-01-18T06:56:57.167Z,18.02
2019-01-18T06:59:29.247Z,17.92
2019-01-18T07:02:00.787Z,17.92
2019-01-18T07:04:32.119Z,18.05
2019-01-18T07:07:03.390Z,18.32
2019-01-18T07:09:35.117Z,18.32
2019-01-18T07:12:07.567Z,18.10
2019-01-18T07:14:39.274Z,18.12
2019-01-18T07:17:10.834Z,18.25
2019-01-18T07:19:42.277Z,18.25
2019-01-18T07:22:13.613Z,18.29
2019-01-18T07:24:45.293Z,18.06
2019-01-18T07:27:17.108Z,18.06
2019-01-18T07:29:48.826Z,18.40
2019-01-18T07:32:20.302Z,18.59
2019-01-18T07:34:51.575Z,18.83
2019-01-18T07:37:23.326Z,18.83
2019-01-18T07:39:55.307Z,18.89
2019-01-18T07:42:27.014Z,19.16
2019-01-18T07:44:58.695Z,19.16
2019-01-18T07:47:30.410Z,18.62
2019-01-18T07:50:01.988Z,18.92
2019-01-18T07:52:33.673Z,18.63
2019-01-18T07:55:07.670Z,18.63
2019-01-18T07:57:39.069Z,19.29
2019-01-18T08:00:19.771Z,19.29
2019-01-18T08:02:51.464Z,18.97
2019-01-18T08:05:24.297Z,18.81
2019-01-18T08:07:55.940Z,19.16
2019-01-18T08:10:27.769Z,19.16
2019-01-18T08:12:59.231Z,19.31
2019-01-18T08:15:31.903Z,18.98
2019-01-18T08:18:03.590Z,18.98
2019-01-18T08:20:35.247Z,19.28
2019-01-18T08:23:06.731Z,19.28
2019-01-18T08:25:38.126Z,18.88
2019-01-18T08:28:09.823Z,18.88
2019-01-18T08:30:41.459Z,19.21
2019-01-18T08:33:13.001Z,19.21
2019-01-18T08:35:44.613Z,19.55
2019-01-18T08:38:15.888Z,19.41
2019-01-18T08:40:47.481Z,19.41
2019-01-18T08:43:20.264Z,19.43
2019-01-18T08:45:57.066Z,19.59
2019-01-18T08:48:28.857Z,19.09
2019-01-18T08:51:00.053Z,19.35
2019-01-18T08:53:31.279Z,19.35
2019-01-18T08:56:03.339Z,19.38
2019-01-18T08:58:34.727Z,19.23
2019-01-18T09:01:06.583Z,19.27
2019-01-18T09:03:38.063Z,19.46
2019-01-18T09:06:09.807Z,19.14
2019-01-18T09:08:40.905Z,19.14
2019-01-18T09:11:12.479Z,19.24
2019-01-18T09:13:43.573Z,19.43
2019-01-18T09:16:15.226Z,19.43
2019-01-18T09:18:46.411Z,19.63
2019-01-18T09:21:18.329Z,19.63
2019-01-18T09:23:49.935Z,19.47
2019-01-18T09:26:21.896Z,19.37
2019-01-18T09:28:53.505Z,19.68
2019-01-18T09:31:25.343Z,19.68
2019-01-18T09:33:57.252Z,19.50
2019-01-18T09:36:28.694Z,19.46
2019-01-18T09:39:00.357Z,19.24
2019-01-18T09:41:31.901Z,19.43
2019-01-18T09:44:03.411Z,19.28
2019-01-18T09:46:34.798Z,19.35
2019-01-18T09:49:06.618Z,19.26
2019-01-18T09:51:38.266Z,19.57
2019-01-18T09:54:10.512Z,19.26
2019-01-18T09:56:42.626Z,19.51
2019-01-18T09:59:14.709Z,19.37
2019-01-18T10:01:49.481Z,19.37
2019-01-18T10:04:20.095Z,19.20
2019-01-18T10:06:52.443Z,19.34
2019-01-18T10:09:24.226Z,19.55
2019-01-18T10:11:56.119Z,19.36
2019-01-18T10:14:27.921Z,19.63
2019-01-18T10:17:02.520Z,19.41
2019-01-18T10:19:35.377Z,19.41
2019-01-18T10:22:07.140Z,19.43
2019-01-18T10:24:38.555Z,19.32
2019-01-18T10:27:10.013Z,19.40
2019-01-18T10:29:41.235Z,19.30
2019-01-18T10:32:12.589Z,19.30
2019-01-18T10:34:44.151Z,19.29
2019-01-18T10:37:15.568Z,19.31
2019-01-18T10:39:47.174Z,19.23
2019-01-18T10:42:18.770Z,19.31
2019-01-18T10:44:50.587Z,19.19
2019-01-18T10:47:22.077Z,19.19
2019-01-18T10:49:53.517Z,19.27
2019-01-18T10:52:25.194Z,19.48
2019-01-18T10:54:56.595Z,19.48
2019-01-18T10:57:28.086Z,19.41
2019-01-18T10:59:59.744Z,19.58
2019-01-18T11:02:31.464Z,19.31
2019-01-18T11:05:03.458Z,19.31
2019-01-18T11:07:35.121Z,19.39
2019-01-18T11:10:06.892Z,19.30
2019-01-18T11:12:38.218Z,19.32
2019-01-18T11:15:11.775Z,19.32
2019-01-18T11:17:43.507Z,19.31
2019-01-18T11:20:22.945Z,19.23
2019-01-18T11:22:58.150Z,19.14
2019-01-18T11:25:31.898Z,19.07
2019-01-18T11:28:02.224Z,19.14
2019-01-18T11:30:33.725Z,19.00
2019-01-18T11:33:05.308Z,19.08
2019-01-18T11:35:38.449Z,19.08
2019-01-18T11:38:10.011Z,19.04
2019-01-18T11:40:41.472Z,19.02
2019-01-18T11:43:13.110Z,19.04
2019-01-18T11:45:44.530Z,19.01
2019-01-18T11:48:16.235Z,19.01
2019-01-18T11:50:48.787Z,18.96
2019-01-18T11:53:20.052Z,19.00
2019-01-18T11:55:51.704Z,19.00
2019-01-18T11:58:23.280Z,18.99
2019-01-18T12:00:55.049Z,19.00
2019-01-18T12:03:26.420Z,18.92
2019-01-18T12:05:58.811Z,18.92
2019-01-18T12:08:30.232Z,18.89
2019-01-18T12:11:01.572Z,18.89
2019-01-18T12:13:33.352Z,18.87
2019-01-18T12:16:04.892Z,18.88
2019-01-18T12:18:36.385Z,18.78
2019-01-18T12:21:07.538Z,18.78
2019-01-18T12:23:39.072Z,18.73
2019-01-18T12:26:10.360Z,18.66
2019-01-18T12:28:41.734Z,18.69
2019-01-18T12:31:13.265Z,18.73
2019-01-18T12:33:44.394Z,18.73
2019-01-18T12:36:15.633Z,18.73
2019-01-18T12:38:46.961Z,18.78
2019-01-18T12:41:18.116Z,18.62
2019-01-18T12:43:49.403Z,18.67
2019-01-18T12:46:21.380Z,18.67
2019-01-18T12:48:53.453Z,18.71
2019-01-18T12:51:24.737Z,18.62
2019-01-18T12:53:56.315Z,18.67
2019-01-18T12:56:27.618Z,18.67
2019-01-18T12:58:58.829Z,18.63
2019-01-18T13:01:30.115Z,18.60
2019-01-18T13:04:01.584Z,18.49
2019-01-18T13:06:33.095Z,18.52
2019-01-18T13:09:05.967Z,18.32
2019-01-18T13:11:37.982Z,18.32
2019-01-18T13:14:09.212Z,18.29
2019-01-18T13:16:43.729Z,18.37
2019-01-18T13:19:23.182Z,18.48
2019-01-18T13:21:54.919Z,18.52
2019-01-18T13:24:27.062Z,18.51
2019-01-18T13:26:59.798Z,18.51
2019-01-18T13:29:31.192Z,18.47
2019-01-18T13:32:02.641Z,18.47
2019-01-18T13:34:34.189Z,18.41
2019-01-18T13:37:05.768Z,18.51
2019-01-18T13:39:37.126Z,18.48
2019-01-18T13:42:08.798Z,18.48
2019-01-18T13:44:43.708Z,18.50
2019-01-18T13:47:18.249Z,18.50
2019-01-18T13:49:46.604Z,18.43
2019-01-18T13:52:21.552Z,18.24
2019-01-18T13:54:53.212Z,18.24
2019-01-18T13:57:24.890Z,18.20
2019-01-18T13:59:56.594Z,18.14
2019-01-18T14:02:29.693Z,18.16
2019-01-18T14:05:00.947Z,18.11
2019-01-18T14:07:32.862Z,18.11
2019-01-18T14:10:04.758Z,18.13
2019-01-18T14:12:37.133Z,18.23
2019-01-18T14:15:09.076Z,18.28
2019-01-18T14:17:40.533Z,18.25
2019-01-18T14:20:13.894Z,18.25
2019-01-18T14:22:45.384Z,18.25
2019-01-18T14:25:16.800Z,18.28
2019-01-18T14:27:48.494Z,18.29
2019-01-18T14:30:22.513Z,18.26
2019-01-18T14:32:55.582Z,18.25
2019-01-18T14:35:27.244Z,18.25
2019-01-18T14:37:58.503Z,18.23
2019-01-18T14:40:30.037Z,18.23
2019-01-18T14:43:01.714Z,18.06
2019-01-18T14:45:36.733Z,18.00
2019-01-18T14:48:08.675Z,18.00
2019-01-18T14:50:40.327Z,18.00
2019-01-18T14:53:12.031Z,18.08
2019-01-18T14:55:43.376Z,18.08
2019-01-18T14:58:15.328Z,18.08
2019-01-18T15:00:46.718Z,18.06
2019-01-18T15:03:18.865Z,18.06
2019-01-18T15:05:50.401Z,18.06
2019-01-18T15:08:24.300Z,17.93
2019-01-18T15:10:55.920Z,17.76
2019-01-18T15:13:27.465Z,17.72
2019-01-18T15:15:59.435Z,17.81
2019-01-18T15:18:31.038Z,17.86
2019-01-18T15:21:02.466Z,17.95
2019-01-18T15:23:33.773Z,17.95
2019-01-18T15:26:05.642Z,17.98
2019-01-18T15:28:44.594Z,18.00
2019-01-18T15:31:15.888Z,17.99
2019-01-18T15:33:47.824Z,17.94
2019-01-18T15:36:19.208Z,17.94
2019-01-18T15:38:51.477Z,17.94
2019-01-18T15:41:22.859Z,17.73
2019-01-18T15:43:55.601Z,17.60
2019-01-18T15:46:27.219Z,16.31
2019-01-18T15:48:58.628Z,15.77
2019-01-18T15:51:29.706Z,15.72
2019-01-18T15:54:01.610Z,15.70
2019-01-18T15:56:33.126Z,15.75
2019-01-18T15:59:04.795Z,15.68
2019-01-18T16:01:36.361Z,15.68
2019-01-18T16:04:09.073Z,15.75
2019-01-18T16:06:40.630Z,15.74
2019-01-18T16:09:12.783Z,15.67
2019-01-18T16:11:44.250Z,15.59
2019-01-18T16:14:15.734Z,15.54
2019-01-18T16:16:56.802Z,15.54
2019-01-18T16:19:28.596Z,15.42
2019-01-18T16:22:00.253Z,15.43
2019-01-18T16:24:31.765Z,15.43
2019-01-18T16:27:03.469Z,15.33
2019-01-18T16:29:34.763Z,15.38
2019-01-18T16:32:06.503Z,15.35
2019-01-18T16:34:37.993Z,15.35
2019-01-18T16:37:09.362Z,15.39
2019-01-18T16:39:41.443Z,15.43
2019-01-18T16:42:15.443Z,15.43
2019-01-18T16:44:47.184Z,15.39
2019-01-18T16:47:18.470Z,15.34
2019-01-18T16:49:49.871Z,15.34
2019-01-18T16:52:21.116Z,15.26
2019-01-18T16:54:52.607Z,15.07
2019-01-18T16:57:23.965Z,15.24
2019-01-18T16:59:55.444Z,15.24
2019-01-18T17:02:26.668Z,15.11
2019-01-18T17:04:58.191Z,15.08
2019-01-18T17:07:29.737Z,15.10
2019-01-18T17:10:01.740Z,15.15
2019-01-18T17:12:32.851Z,15.15
2019-01-18T17:15:04.767Z,15.13
2019-01-18T17:17:36.359Z,15.19
2019-01-18T17:20:12.544Z,15.19
2019-01-18T17:22:43.987Z,15.10
2019-01-18T17:25:17.476Z,15.06
2019-01-18T17:27:49.232Z,15.06
2019-01-18T17:30:21.186Z,15.02
2019-01-18T17:32:52.853Z,14.97
2019-01-18T17:35:33.471Z,15.01
2019-01-18T17:38:29.101Z,15.01
2019-01-18T17:41:45.988Z,14.84
2019-01-18T17:45:06.821Z,14.91
2019-01-18T17:48:25.075Z,14.97
2019-01-18T17:51:24.749Z,14.97
2019-01-18T17:54:22.963Z,14.93
2019-01-18T17:57:40.800Z,14.89
2019-01-18T18:00:48.612Z,14.89
2019-01-18T18:03:55.232Z,14.84
2019-01-18T18:07:07.392Z,14.81
2019-01-18T18:10:11.188Z,14.80
2019-01-18T18:13:30.090Z,14.79
2019-01-18T18:16:32.504Z,14.68
2019-01-18T18:19:30.949Z,14.68
2019-01-18T18:22:36.685Z,14.77
2019-01-18T18:25:35.836Z,14.77
2019-01-18T18:28:37.327Z,14.73
2019-01-18T18:31:23.446Z,14.62
2019-01-18T18:34:14.786Z,14.67
2019-01-18T18:37:15.978Z,14.59
2019-01-18T18:40:52.258Z,14.58
2019-01-18T18:43:50.350Z,14.60
2019-01-18T18:46:43.873Z,14.46
2019-01-18T18:49:28.573Z,14.46
2019-01-18T18:52:39.705Z,14.34
2019-01-18T18:55:30.403Z,14.33
2019-01-18T18:58:38.128Z,14.33
2019-01-18T19:01:52.569Z,14.18
2019-01-18T19:04:56.356Z,14.29
2019-01-18T19:07:46.232Z,14.26
2019-01-18T19:10:39.372Z,14.34
2019-01-18T19:13:44.985Z,14.19
2019-01-18T19:16:47.651Z,14.21
2019-01-18T19:19:46.559Z,14.21
2019-01-18T19:22:53.746Z,13.96
2019-01-18T19:25:49.597Z,13.96
2019-01-18T19:28:52.498Z,13.97
2019-01-18T19:31:55.341Z,14.14
2019-01-18T19:35:05.088Z,14.20
2019-01-18T19:38:27.730Z,14.20
2019-01-18T19:41:41.880Z,14.25
2019-01-18T19:44:41.728Z,14.13
2019-01-18T19:47:39.289Z,14.04
2019-01-18T19:50:52.655Z,13.78
2019-01-18T19:53:49.147Z,13.80
2019-01-18T19:56:58.686Z,13.80
2019-01-18T19:59:57.078Z,13.89
2019-01-18T20:03:00.557Z,13.89
2019-01-18T20:06:12.493Z,13.96
2019-01-18T20:09:13.597Z,13.94
2019-01-18T20:12:22.728Z,13.67
2019-01-18T20:15:17.313Z,13.67
2019-01-18T20:18:29.333Z,13.64
2019-01-18T20:21:36.103Z,13.72
2019-01-18T20:24:45.664Z,13.53
2019-01-18T20:27:57.123Z,13.53
2019-01-18T20:31:13.194Z,13.55
2019-01-18T20:34:20.175Z,13.89
2019-01-18T20:37:24.452Z,13.89
2019-01-18T20:40:42.155Z,13.63
2019-01-18T20:43:48.321Z,13.63
2019-01-18T20:46:55.124Z,13.51
2019-01-18T20:49:50.442Z,13.51
2019-01-18T20:52:59.504Z,13.53
2019-01-18T20:55:54.790Z,13.53
2019-01-18T20:58:56.704Z,13.67
2019-01-18T21:02:01.548Z,13.60
2019-01-18T21:05:25.220Z,13.30
2019-01-18T21:08:46.331Z,13.53
2019-01-18T21:11:42.053Z,13.53
2019-01-18T21:14:43.302Z,13.69
2019-01-18T21:17:59.837Z,13.54
2019-01-18T21:21:30.247Z,13.51
2019-01-18T21:24:44.899Z,13.51
2019-01-18T21:28:02.742Z,13.60
2019-01-18T21:31:15.996Z,13.27
2019-01-18T21:34:24.995Z,13.26
2019-01-18T21:37:44.483Z,13.37
2019-01-18T21:40:43.703Z,13.27
2019-01-18T21:44:08.067Z,13.23
2019-01-18T21:47:11.972Z,13.25
2019-01-18T21:50:00.650Z,13.25
2019-01-18T21:53:15.887Z,13.25
2019-01-18T21:56:27.129Z,12.88
2019-01-18T21:59:25.160Z,12.83
2019-01-18T22:02:22.399Z,12.83
2019-01-18T22:05:11.818Z,13.18
2019-01-18T22:07:51.144Z,13.18
2019-01-18T22:10:40.948Z,13.17
2019-01-18T22:13:42.884Z,12.94
2019-01-18T22:16:50.246Z,12.96
2019-01-18T22:20:11.280Z,12.84
2019-01-18T22:23:16.738Z,13.08
2019-01-18T22:26:18.781Z,13.17
2019-01-18T22:29:23.228Z,13.08
2019-01-18T22:32:35.117Z,13.08
2019-01-18T22:35:41.607Z,13.04
2019-01-18T22:38:52.242Z,12.96
2019-01-18T22:42:04.970Z,12.82
2019-01-18T22:45:09.668Z,12.90
2019-01-18T22:48:45.517Z,12.90
2019-01-18T22:51:58.353Z,13.06
2019-01-18T22:55:06.690Z,12.82
2019-01-18T22:58:17.144Z,12.75
2019-01-18T23:01:20.003Z,12.75
2019-01-18T23:04:29.888Z,12.67
2019-01-18T23:07:24.382Z,12.43
2019-01-18T23:10:57.766Z,12.43
2019-01-18T23:14:15.618Z,12.45
2019-01-18T23:17:32.032Z,12.43
2019-01-18T23:20:41.642Z,12.43
2019-01-18T23:23:54.469Z,12.52
2019-01-18T23:27:23.743Z,12.56
2019-01-18T23:30:40.931Z,12.62
2019-01-18T23:33:36.078Z,12.62
2019-01-18T23:36:34.702Z,12.59
2019-01-18T23:39:25.538Z,12.57
2019-01-18T23:42:42.596Z,12.67
2019-01-18T23:45:42.097Z,12.58
2019-01-18T23:48:48.930Z,12.70
2019-01-18T23:51:53.441Z,12.68
2019-01-18T23:55:14.952Z,12.68
2019-01-18T23:58:07.817Z,12.56
